sensor_id;sensor_type;location;lat;lon;timestamp;pressure;altitude;pressure_sealevel;temperature;humidity
62697;BME280;48761;42.680;23.312;2023-03-21T00:00:29;94668.31;;;13.50;48.50
62697;BME280;48761;42.680;23.312;2023-03-21T00:02:55;94659.59;;;13.48;48.49
62697;BME280;48761;42.680;23.312;2023-03-21T00:05:22;94662.50;;;13.45;48.68
62697;BME280;48761;42.680;23.312;2023-03-21T00:07:48;94643.59;;;13.27;49.10
62697;BME280;48761;42.680;23.312;2023-03-21T00:10:14;94642.13;;;13.22;48.91
62697;BME280;48761;42.680;23.312;2023-03-21T00:12:40;94671.75;;;13.41;48.91
62697;BME280;48761;42.680;23.312;2023-03-21T00:15:07;94677.97;;;13.41;48.89
62697;BME280;48761;42.680;23.312;2023-03-21T00:17:35;94672.63;;;13.41;48.87
62697;BME280;48761;42.680;23.312;2023-03-21T00:20:02;94663.09;;;13.27;49.07
62697;BME280;48761;42.680;23.312;2023-03-21T00:22:28;94666.22;;;13.32;49.34
62697;BME280;48761;42.680;23.312;2023-03-21T00:24:54;94657.03;;;13.25;49.19
62697;BME280;48761;42.680;23.312;2023-03-21T00:27:21;94634.91;;;13.13;48.86
62697;BME280;48761;42.680;23.312;2023-03-21T00:29:47;94648.78;;;13.07;49.31
62697;BME280;48761;42.680;23.312;2023-03-21T00:32:14;94652.28;;;13.07;49.40
62697;BME280;48761;42.680;23.312;2023-03-21T00:34:41;94667.56;;;13.05;49.74
62697;BME280;48761;42.680;23.312;2023-03-21T00:37:07;94677.56;;;12.92;50.23
62697;BME280;48761;42.680;23.312;2023-03-21T00:39:34;94671.00;;;12.96;49.91
62697;BME280;48761;42.680;23.312;2023-03-21T00:42:00;94676.00;;;12.89;50.13
62697;BME280;48761;42.680;23.312;2023-03-21T00:44:26;94676.34;;;12.96;50.02
62697;BME280;48761;42.680;23.312;2023-03-21T00:46:52;94649.19;;;12.91;49.87
62697;BME280;48761;42.680;23.312;2023-03-21T00:49:18;94646.81;;;12.76;50.32
62697;BME280;48761;42.680;23.312;2023-03-21T00:51:44;94645.44;;;12.82;50.21
62697;BME280;48761;42.680;23.312;2023-03-21T00:54:11;94640.09;;;12.60;50.68
62697;BME280;48761;42.680;23.312;2023-03-21T00:56:37;94639.41;;;12.35;51.27
62697;BME280;48761;42.680;23.312;2023-03-21T00:59:03;94653.91;;;12.54;51.25
62697;BME280;48761;42.680;23.312;2023-03-21T01:01:29;94643.47;;;12.62;50.96
62697;BME280;48761;42.680;23.312;2023-03-21T01:03:55;94637.19;;;12.85;50.63
62697;BME280;48761;42.680;23.312;2023-03-21T01:06:21;94634.22;;;12.78;50.71
62697;BME280;48761;42.680;23.312;2023-03-21T01:08:47;94657.53;;;12.97;50.47
62697;BME280;48761;42.680;23.312;2023-03-21T01:11:16;94637.59;;;12.80;50.39
62697;BME280;48761;42.680;23.312;2023-03-21T01:13:42;94661.28;;;12.95;50.28
62697;BME280;48761;42.680;23.312;2023-03-21T01:16:08;94655.97;;;12.95;50.21
62697;BME280;48761;42.680;23.312;2023-03-21T01:18:37;94648.09;;;12.93;50.43
62697;BME280;48761;42.680;23.312;2023-03-21T01:21:07;94654.28;;;12.94;50.30
62697;BME280;48761;42.680;23.312;2023-03-21T01:23:34;94617.50;;;12.76;50.32
62697;BME280;48761;42.680;23.312;2023-03-21T01:26:00;94648.00;;;12.83;50.46
62697;BME280;48761;42.680;23.312;2023-03-21T01:28:27;94656.72;;;12.85;50.51
62697;BME280;48761;42.680;23.312;2023-03-21T01:30:53;94652.16;;;12.76;50.69
62697;BME280;48761;42.680;23.312;2023-03-21T01:33:20;94634.75;;;12.60;50.80
62697;BME280;48761;42.680;23.312;2023-03-21T01:35:47;94665.59;;;12.74;51.01
62697;BME280;48761;42.680;23.312;2023-03-21T01:38:13;94661.97;;;12.75;51.07
62697;BME280;48761;42.680;23.312;2023-03-21T01:40:40;94651.44;;;12.74;51.36
62697;BME280;48761;42.680;23.312;2023-03-21T01:43:19;94631.31;;;12.70;51.13
62697;BME280;48761;42.680;23.312;2023-03-21T01:48:54;94662.34;;;12.71;51.18
62697;BME280;48761;42.680;23.312;2023-03-21T01:51:21;94646.84;;;12.64;51.20
62697;BME280;48761;42.680;23.312;2023-03-21T01:53:47;94650.38;;;12.65;51.29
62697;BME280;48761;42.680;23.312;2023-03-21T01:56:23;94601.34;;;12.44;51.03
62697;BME280;48761;42.680;23.312;2023-03-21T01:58:52;94629.91;;;12.54;51.07
62697;BME280;48761;42.680;23.312;2023-03-21T02:01:20;94634.28;;;12.55;51.01
62697;BME280;48761;42.680;23.312;2023-03-21T02:03:46;94649.50;;;12.64;50.97
62697;BME280;48761;42.680;23.312;2023-03-21T02:06:19;94641.03;;;12.59;51.19
62697;BME280;48761;42.680;23.312;2023-03-21T02:08:47;94647.84;;;12.63;51.09
62697;BME280;48761;42.680;23.312;2023-03-21T02:11:13;94640.47;;;12.55;51.11
62697;BME280;48761;42.680;23.312;2023-03-21T02:13:40;94607.19;;;12.38;50.98
62697;BME280;48761;42.680;23.312;2023-03-21T02:16:28;94635.13;;;12.55;51.06
62697;BME280;48761;42.680;23.312;2023-03-21T02:27:19;94641.22;;;12.46;51.07
62697;BME280;48761;42.680;23.312;2023-03-21T02:32:40;94640.84;;;12.39;51.07
62697;BME280;48761;42.680;23.312;2023-03-21T02:35:23;94637.13;;;12.30;51.42
62697;BME280;48761;42.680;23.312;2023-03-21T02:38:04;94634.09;;;12.24;51.61
62697;BME280;48761;42.680;23.312;2023-03-21T02:46:17;94637.25;;;11.94;52.87
62697;BME280;48761;42.680;23.312;2023-03-21T02:48:52;94635.53;;;11.93;52.87
62697;BME280;48761;42.680;23.312;2023-03-21T02:51:22;94623.78;;;11.96;52.83
62697;BME280;48761;42.680;23.312;2023-03-21T02:53:54;94629.50;;;12.03;52.80
62697;BME280;48761;42.680;23.312;2023-03-21T02:56:23;94610.84;;;11.91;52.74
62697;BME280;48761;42.680;23.312;2023-03-21T02:58:50;94611.34;;;11.85;53.06
62697;BME280;48761;42.680;23.312;2023-03-21T03:01:17;94603.25;;;11.75;53.01
62697;BME280;48761;42.680;23.312;2023-03-21T03:03:43;94616.91;;;11.82;53.25
62697;BME280;48761;42.680;23.312;2023-03-21T03:06:21;94636.03;;;11.87;53.29
62697;BME280;48761;42.680;23.312;2023-03-21T03:11:35;94633.13;;;12.02;53.38
62697;BME280;48761;42.680;23.312;2023-03-21T03:22:25;94633.13;;;11.90;52.93
62697;BME280;48761;42.680;23.312;2023-03-21T03:25:02;94636.53;;;11.92;52.98
62697;BME280;48761;42.680;23.312;2023-03-21T03:27:35;94581.06;;;11.51;52.97
62697;BME280;48761;42.680;23.312;2023-03-21T03:30:04;94629.50;;;11.80;53.00
62697;BME280;48761;42.680;23.312;2023-03-21T03:32:59;94638.22;;;11.82;52.85
62697;BME280;48761;42.680;23.312;2023-03-21T03:35:25;94630.59;;;11.77;52.72
62697;BME280;48761;42.680;23.312;2023-03-21T03:37:54;94641.81;;;11.81;52.56
62697;BME280;48761;42.680;23.312;2023-03-21T03:40:26;94628.28;;;11.72;52.36
62697;BME280;48761;42.680;23.312;2023-03-21T03:42:56;94609.41;;;11.52;52.69
62697;BME280;48761;42.680;23.312;2023-03-21T03:45:47;94617.63;;;11.49;52.78
62697;BME280;48761;42.680;23.312;2023-03-21T03:48:35;94623.41;;;11.43;53.03
62697;BME280;48761;42.680;23.312;2023-03-21T03:51:27;94635.66;;;11.57;53.07
62697;BME280;48761;42.680;23.312;2023-03-21T03:54:10;94604.31;;;11.49;52.72
62697;BME280;48761;42.680;23.312;2023-03-21T03:56:38;94636.50;;;11.58;52.94
62697;BME280;48761;42.680;23.312;2023-03-21T03:59:04;94601.28;;;11.42;52.58
62697;BME280;48761;42.680;23.312;2023-03-21T04:01:30;94608.16;;;11.34;52.59
62697;BME280;48761;42.680;23.312;2023-03-21T04:03:56;94598.09;;;11.14;53.09
62697;BME280;48761;42.680;23.312;2023-03-21T04:06:22;94608.25;;;11.20;53.17
62697;BME280;48761;42.680;23.312;2023-03-21T04:08:48;94637.63;;;11.19;53.89
62697;BME280;48761;42.680;23.312;2023-03-21T04:11:14;94621.31;;;10.76;55.14
62697;BME280;48761;42.680;23.312;2023-03-21T04:13:40;94638.50;;;10.83;55.08
62697;BME280;48761;42.680;23.312;2023-03-21T04:16:07;94640.72;;;11.01;54.89
62697;BME280;48761;42.680;23.312;2023-03-21T04:18:33;94631.69;;;11.04;54.52
62697;BME280;48761;42.680;23.312;2023-03-21T04:20:59;94594.78;;;10.99;54.32
62697;BME280;48761;42.680;23.312;2023-03-21T04:23:25;94622.00;;;11.03;54.86
62697;BME280;48761;42.680;23.312;2023-03-21T04:25:51;94634.13;;;10.82;55.68
62697;BME280;48761;42.680;23.312;2023-03-21T04:28:17;94624.91;;;10.75;56.26
62697;BME280;48761;42.680;23.312;2023-03-21T04:30:43;94623.78;;;10.91;55.82
62697;BME280;48761;42.680;23.312;2023-03-21T04:33:09;94589.19;;;10.79;55.58
62697;BME280;48761;42.680;23.312;2023-03-21T04:35:35;94626.84;;;11.09;55.10
62697;BME280;48761;42.680;23.312;2023-03-21T04:38:01;94622.84;;;11.03;54.89
62697;BME280;48761;42.680;23.312;2023-03-21T04:40:27;94622.63;;;11.06;54.64
62697;BME280;48761;42.680;23.312;2023-03-21T04:42:53;94593.28;;;10.83;54.60
62697;BME280;48761;42.680;23.312;2023-03-21T04:45:19;94615.59;;;11.05;54.46
62697;BME280;48761;42.680;23.312;2023-03-21T04:47:45;94623.34;;;11.20;54.16
62697;BME280;48761;42.680;23.312;2023-03-21T04:50:11;94629.69;;;11.30;53.44
62697;BME280;48761;42.680;23.312;2023-03-21T04:52:37;94608.81;;;11.01;53.77
62697;BME280;48761;42.680;23.312;2023-03-21T04:55:03;94636.63;;;11.08;54.26
62697;BME280;48761;42.680;23.312;2023-03-21T04:57:29;94633.03;;;11.09;54.40
62697;BME280;48761;42.680;23.312;2023-03-21T04:59:55;94642.97;;;11.30;53.93
62697;BME280;48761;42.680;23.312;2023-03-21T05:02:21;94628.44;;;11.23;53.66
62697;BME280;48761;42.680;23.312;2023-03-21T05:04:47;94635.97;;;11.29;53.48
62697;BME280;48761;42.680;23.312;2023-03-21T05:07:13;94623.63;;;11.17;53.17
62697;BME280;48761;42.680;23.312;2023-03-21T05:09:39;94601.78;;;11.00;53.64
62697;BME280;48761;42.680;23.312;2023-03-21T05:12:05;94645.47;;;11.09;54.27
62697;BME280;48761;42.680;23.312;2023-03-21T05:14:31;94583.84;;;10.79;54.00
62697;BME280;48761;42.680;23.312;2023-03-21T05:16:58;94648.66;;;11.26;53.94
62697;BME280;48761;42.680;23.312;2023-03-21T05:19:26;94636.19;;;11.15;54.02
62697;BME280;48761;42.680;23.312;2023-03-21T05:21:53;94637.63;;;11.19;54.13
62697;BME280;48761;42.680;23.312;2023-03-21T05:24:20;94645.78;;;11.40;53.32
62697;BME280;48761;42.680;23.312;2023-03-21T05:26:47;94635.84;;;11.31;53.17
62697;BME280;48761;42.680;23.312;2023-03-21T05:29:13;94643.34;;;11.26;53.79
62697;BME280;48761;42.680;23.312;2023-03-21T05:31:39;94624.13;;;11.22;53.64
62697;BME280;48761;42.680;23.312;2023-03-21T05:34:04;94645.63;;;11.30;53.79
62697;BME280;48761;42.680;23.312;2023-03-21T05:36:30;94641.53;;;11.38;53.68
62697;BME280;48761;42.680;23.312;2023-03-21T05:38:56;94656.19;;;11.43;53.94
62697;BME280;48761;42.680;23.312;2023-03-21T05:41:22;94660.44;;;11.46;53.84
62697;BME280;48761;42.680;23.312;2023-03-21T05:43:49;94609.81;;;11.12;54.27
62697;BME280;48761;42.680;23.312;2023-03-21T05:46:15;94630.75;;;11.28;54.73
62697;BME280;48761;42.680;23.312;2023-03-21T05:48:41;94649.56;;;11.49;54.51
62697;BME280;48761;42.680;23.312;2023-03-21T05:51:07;94630.94;;;11.49;54.13
62697;BME280;48761;42.680;23.312;2023-03-21T05:53:33;94614.22;;;11.59;53.52
62697;BME280;48761;42.680;23.312;2023-03-21T05:56:00;94593.16;;;11.55;53.30
62697;BME280;48761;42.680;23.312;2023-03-21T05:58:26;94632.41;;;11.88;53.22
62697;BME280;48761;42.680;23.312;2023-03-21T06:00:52;94626.81;;;11.91;52.84
62697;BME280;48761;42.680;23.312;2023-03-21T06:03:18;94636.25;;;12.07;52.39
62697;BME280;48761;42.680;23.312;2023-03-21T06:05:44;94622.34;;;12.03;52.67
62697;BME280;48761;42.680;23.312;2023-03-21T06:08:10;94626.22;;;12.10;52.46
62697;BME280;48761;42.680;23.312;2023-03-21T06:10:36;94612.19;;;11.62;53.08
62697;BME280;48761;42.680;23.312;2023-03-21T06:13:02;94621.50;;;11.80;53.51
62697;BME280;48761;42.680;23.312;2023-03-21T06:15:28;94619.06;;;11.99;53.15
62697;BME280;48761;42.680;23.312;2023-03-21T06:17:54;94606.13;;;11.95;52.88
62697;BME280;48761;42.680;23.312;2023-03-21T06:20:20;94599.72;;;11.97;52.67
62697;BME280;48761;42.680;23.312;2023-03-21T06:22:46;94591.59;;;11.99;52.26
62697;BME280;48761;42.680;23.312;2023-03-21T06:25:12;94622.94;;;12.07;52.13
62697;BME280;48761;42.680;23.312;2023-03-21T06:27:38;94615.94;;;12.17;52.06
62697;BME280;48761;42.680;23.312;2023-03-21T06:30:05;94612.31;;;11.95;52.77
62697;BME280;48761;42.680;23.312;2023-03-21T06:32:31;94612.56;;;11.92;53.21
62697;BME280;48761;42.680;23.312;2023-03-21T06:34:57;94609.66;;;11.95;53.38
62697;BME280;48761;42.680;23.312;2023-03-21T06:37:23;94609.66;;;11.95;53.07
62697;BME280;48761;42.680;23.312;2023-03-21T06:39:49;94613.28;;;12.17;52.71
62697;BME280;48761;42.680;23.312;2023-03-21T06:42:15;94592.19;;;11.91;52.61
62697;BME280;48761;42.680;23.312;2023-03-21T06:44:41;94608.09;;;12.16;52.03
62697;BME280;48761;42.680;23.312;2023-03-21T06:47:07;94631.03;;;12.40;51.49
62697;BME280;48761;42.680;23.312;2023-03-21T06:49:33;94632.03;;;12.27;51.44
62697;BME280;48761;42.680;23.312;2023-03-21T06:51:59;94633.84;;;12.38;51.26
62697;BME280;48761;42.680;23.312;2023-03-21T06:54:25;94633.31;;;12.44;51.04
62697;BME280;48761;42.680;23.312;2023-03-21T06:56:51;94629.91;;;12.54;50.54
62697;BME280;48761;42.680;23.312;2023-03-21T06:59:17;94632.38;;;12.34;50.31
62697;BME280;48761;42.680;23.312;2023-03-21T07:01:43;94629.19;;;12.52;49.95
62697;BME280;48761;42.680;23.312;2023-03-21T07:04:09;94635.53;;;12.39;50.47
62697;BME280;48761;42.680;23.312;2023-03-21T07:06:35;94636.59;;;12.37;50.50
62697;BME280;48761;42.680;23.312;2023-03-21T07:09:02;94624.63;;;12.42;50.13
62697;BME280;48761;42.680;23.312;2023-03-21T07:11:28;94629.81;;;12.88;49.32
62697;BME280;48761;42.680;23.312;2023-03-21T07:13:54;94632.78;;;12.74;49.13
62697;BME280;48761;42.680;23.312;2023-03-21T07:16:20;94633.97;;;12.70;49.50
62697;BME280;48761;42.680;23.312;2023-03-21T07:18:46;94642.84;;;12.70;50.15
62697;BME280;48761;42.680;23.312;2023-03-21T07:21:12;94637.34;;;12.83;50.04
62697;BME280;48761;42.680;23.312;2023-03-21T07:23:39;94641.25;;;12.79;49.84
62697;BME280;48761;42.680;23.312;2023-03-21T07:26:05;94643.34;;;12.64;49.90
62697;BME280;48761;42.680;23.312;2023-03-21T07:28:31;94639.59;;;12.55;50.07
62697;BME280;48761;42.680;23.312;2023-03-21T07:31:00;94630.03;;;12.52;50.77
62697;BME280;48761;42.680;23.312;2023-03-21T07:33:27;94634.97;;;12.69;49.71
62697;BME280;48761;42.680;23.312;2023-03-21T07:35:54;94632.16;;;12.70;50.37
62697;BME280;48761;42.680;23.312;2023-03-21T07:38:20;94636.16;;;12.76;50.27
62697;BME280;48761;42.680;23.312;2023-03-21T07:40:47;94638.59;;;12.68;50.12
62697;BME280;48761;42.680;23.312;2023-03-21T07:43:14;94640.31;;;12.69;50.17
62697;BME280;48761;42.680;23.312;2023-03-21T07:45:40;94632.78;;;12.74;50.01
62697;BME280;48761;42.680;23.312;2023-03-21T07:48:06;94635.16;;;12.88;49.62
62697;BME280;48761;42.680;23.312;2023-03-21T07:50:32;94639.06;;;13.06;49.02
62697;BME280;48761;42.680;23.312;2023-03-21T07:52:58;94630.47;;;13.02;49.16
62697;BME280;48761;42.680;23.312;2023-03-21T07:55:24;94639.84;;;13.18;48.47
62697;BME280;48761;42.680;23.312;2023-03-21T07:57:51;94637.13;;;13.29;48.62
62697;BME280;48761;42.680;23.312;2023-03-21T08:00:20;94636.22;;;13.40;48.34
62697;BME280;48761;42.680;23.312;2023-03-21T08:02:47;94645.31;;;13.81;47.40
62697;BME280;48761;42.680;23.312;2023-03-21T08:05:12;94641.31;;;13.65;47.08
62697;BME280;48761;42.680;23.312;2023-03-21T08:07:38;94637.91;;;13.63;47.05
62697;BME280;48761;42.680;23.312;2023-03-21T08:10:05;94636.50;;;13.59;46.91
62697;BME280;48761;42.680;23.312;2023-03-21T08:12:31;94635.31;;;13.51;47.03
62697;BME280;48761;42.680;23.312;2023-03-21T08:14:56;94640.88;;;13.60;46.97
62697;BME280;48761;42.680;23.312;2023-03-21T08:17:22;94629.84;;;13.74;46.81
62697;BME280;48761;42.680;23.312;2023-03-21T08:19:48;94630.50;;;13.98;46.45
62697;BME280;48761;42.680;23.312;2023-03-21T08:22:14;94638.66;;;13.96;46.47
62697;BME280;48761;42.680;23.312;2023-03-21T08:24:40;94625.41;;;13.85;46.40
62697;BME280;48761;42.680;23.312;2023-03-21T08:27:06;94627.63;;;13.80;46.74
62697;BME280;48761;42.680;23.312;2023-03-21T08:29:32;94629.00;;;13.74;46.80
62697;BME280;48761;42.680;23.312;2023-03-21T08:31:58;94620.81;;;13.75;46.54
62697;BME280;48761;42.680;23.312;2023-03-21T08:34:24;94593.97;;;13.67;46.63
62697;BME280;48761;42.680;23.312;2023-03-21T08:36:50;94584.50;;;13.63;46.41
62697;BME280;48761;42.680;23.312;2023-03-21T08:39:16;94615.00;;;13.92;46.40
62697;BME280;48761;42.680;23.312;2023-03-21T08:41:42;94617.44;;;13.73;46.50
62697;BME280;48761;42.680;23.312;2023-03-21T08:44:09;94616.03;;;13.69;46.64
62697;BME280;48761;42.680;23.312;2023-03-21T08:46:35;94635.34;;;14.14;45.87
62697;BME280;48761;42.680;23.312;2023-03-21T08:49:01;94588.88;;;13.95;45.72
62697;BME280;48761;42.680;23.312;2023-03-21T08:51:27;94629.78;;;14.37;46.07
62697;BME280;48761;42.680;23.312;2023-03-21T08:53:53;94623.75;;;14.04;46.31
62697;BME280;48761;42.680;23.312;2023-03-21T08:56:18;94615.72;;;13.94;46.55
62697;BME280;48761;42.680;23.312;2023-03-21T08:58:44;94622.38;;;14.09;46.08
62697;BME280;48761;42.680;23.312;2023-03-21T09:01:10;94614.63;;;14.06;46.02
62697;BME280;48761;42.680;23.312;2023-03-21T09:03:37;94619.41;;;14.03;45.39
62697;BME280;48761;42.680;23.312;2023-03-21T09:06:03;94617.53;;;13.93;45.57
62697;BME280;48761;42.680;23.312;2023-03-21T09:08:29;94607.72;;;14.04;45.14
62697;BME280;48761;42.680;23.312;2023-03-21T09:10:55;94615.03;;;14.01;45.40
62697;BME280;48761;42.680;23.312;2023-03-21T09:13:22;94596.03;;;13.95;45.28
62697;BME280;48761;42.680;23.312;2023-03-21T09:15:48;94601.47;;;14.25;44.88
62697;BME280;48761;42.680;23.312;2023-03-21T09:18:14;94594.50;;;14.43;44.50
62697;BME280;48761;42.680;23.312;2023-03-21T09:20:45;94609.25;;;14.38;44.77
62697;BME280;48761;42.680;23.312;2023-03-21T09:23:13;94600.53;;;14.36;44.99
62697;BME280;48761;42.680;23.312;2023-03-21T09:25:39;94592.22;;;14.49;44.76
62697;BME280;48761;42.680;23.312;2023-03-21T09:28:08;94567.88;;;14.52;44.11
62697;BME280;48761;42.680;23.312;2023-03-21T09:30:35;94578.84;;;14.49;45.08
62697;BME280;48761;42.680;23.312;2023-03-21T09:33:03;94573.50;;;14.49;44.87
62697;BME280;48761;42.680;23.312;2023-03-21T09:35:29;94584.25;;;14.68;44.45
62697;BME280;48761;42.680;23.312;2023-03-21T09:37:55;94583.69;;;14.95;44.10
62697;BME280;48761;42.680;23.312;2023-03-21T09:40:40;94576.66;;;14.74;44.35
62697;BME280;48761;42.680;23.312;2023-03-21T09:48:34;94551.28;;;14.58;43.93
62697;BME280;48761;42.680;23.312;2023-03-21T09:51:02;94549.59;;;14.57;43.92
62697;BME280;48761;42.680;23.312;2023-03-21T09:53:37;94565.63;;;14.77;43.40
62697;BME280;48761;42.680;23.312;2023-03-21T09:56:05;94554.84;;;14.88;43.04
62697;BME280;48761;42.680;23.312;2023-03-21T09:58:43;94562.88;;;14.88;42.83
62697;BME280;48761;42.680;23.312;2023-03-21T10:01:23;94563.09;;;14.85;43.28
62697;BME280;48761;42.680;23.312;2023-03-21T10:03:50;94549.91;;;14.94;42.58
62697;BME280;48761;42.680;23.312;2023-03-21T10:06:16;94528.78;;;14.61;43.09
62697;BME280;48761;42.680;23.312;2023-03-21T10:08:45;94544.84;;;14.90;43.26
62697;BME280;48761;42.680;23.312;2023-03-21T10:13:47;94544.84;;;14.90;43.20
62697;BME280;48761;42.680;23.312;2023-03-21T10:16:27;94537.47;;;15.12;43.27
62697;BME280;48761;42.680;23.312;2023-03-21T10:18:54;94535.13;;;15.48;42.71
62697;BME280;48761;42.680;23.312;2023-03-21T10:21:23;94519.25;;;15.74;42.53
62697;BME280;48761;42.680;23.312;2023-03-21T10:23:51;94530.69;;;16.05;42.53
62697;BME280;48761;42.680;23.312;2023-03-21T10:26:20;94517.44;;;15.93;42.03
62697;BME280;48761;42.680;23.312;2023-03-21T10:28:48;94521.50;;;16.25;41.68
62697;BME280;48761;42.680;23.312;2023-03-21T10:31:17;94526.72;;;15.99;41.37
62697;BME280;48761;42.680;23.312;2023-03-21T10:33:47;94530.53;;;16.53;41.23
62697;BME280;48761;42.680;23.312;2023-03-21T10:36:16;94517.13;;;16.53;41.02
62697;BME280;48761;42.680;23.312;2023-03-21T10:38:46;94529.22;;;16.57;40.45
62697;BME280;48761;42.680;23.312;2023-03-21T10:41:13;94534.50;;;16.67;40.18
62697;BME280;48761;42.680;23.312;2023-03-21T10:43:40;94532.66;;;16.67;40.48
62697;BME280;48761;42.680;23.312;2023-03-21T10:46:17;94529.28;;;16.84;39.30
62697;BME280;48761;42.680;23.312;2023-03-21T10:48:43;94538.25;;;16.92;38.99
62697;BME280;48761;42.680;23.312;2023-03-21T10:51:15;94512.53;;;16.63;38.35
62697;BME280;48761;42.680;23.312;2023-03-21T10:53:44;94533.72;;;16.56;39.10
62697;BME280;48761;42.680;23.312;2023-03-21T10:56:11;94505.97;;;16.29;39.63
62697;BME280;48761;42.680;23.312;2023-03-21T10:58:41;94525.06;;;16.44;39.07
62697;BME280;48761;42.680;23.312;2023-03-21T11:01:11;94521.47;;;16.54;39.24
62697;BME280;48761;42.680;23.312;2023-03-21T11:03:39;94515.31;;;16.43;39.13
62697;BME280;48761;42.680;23.312;2023-03-21T11:06:22;94512.50;;;16.27;39.35
62697;BME280;48761;42.680;23.312;2023-03-21T11:08:59;94490.75;;;16.30;39.82
62697;BME280;48761;42.680;23.312;2023-03-21T11:11:32;94500.63;;;16.47;38.75
62697;BME280;48761;42.680;23.312;2023-03-21T11:14:02;94503.53;;;16.36;39.09
62697;BME280;48761;42.680;23.312;2023-03-21T11:16:42;94485.81;;;16.43;38.75
62697;BME280;48761;42.680;23.312;2023-03-21T11:19:31;94503.47;;;16.64;38.34
62697;BME280;48761;42.680;23.312;2023-03-21T11:22:02;94497.19;;;16.55;38.54
62697;BME280;48761;42.680;23.312;2023-03-21T11:24:31;94499.47;;;16.50;38.29
62697;BME280;48761;42.680;23.312;2023-03-21T11:26:58;94495.19;;;16.39;38.03
62697;BME280;48761;42.680;23.312;2023-03-21T11:29:38;94494.19;;;16.22;38.34
62697;BME280;48761;42.680;23.312;2023-03-21T11:34:46;94472.94;;;16.29;38.86
62697;BME280;48761;42.680;23.312;2023-03-21T11:37:27;94472.19;;;16.18;39.02
62697;BME280;48761;42.680;23.312;2023-03-21T11:40:05;94479.47;;;16.26;38.97
62697;BME280;48761;42.680;23.312;2023-03-21T11:42:40;94469.50;;;16.18;38.86
62697;BME280;48761;42.680;23.312;2023-03-21T11:45:16;94475.88;;;16.17;38.70
62697;BME280;48761;42.680;23.312;2023-03-21T11:47:42;94450.72;;;16.18;38.81
62697;BME280;48761;42.680;23.312;2023-03-21T11:55:45;94455.03;;;16.47;37.72
62697;BME280;48761;42.680;23.312;2023-03-21T12:20:52;94423.81;;;16.65;37.83
62697;BME280;48761;42.680;23.312;2023-03-21T12:23:32;94425.03;;;16.71;37.23
62697;BME280;48761;42.680;23.312;2023-03-21T12:35:01;94416.41;;;16.40;37.48
62697;BME280;48761;42.680;23.312;2023-03-21T12:46:05;94415.03;;;16.36;37.36
62697;BME280;48761;42.680;23.312;2023-03-21T12:51:07;94404.84;;;16.40;36.97
62697;BME280;48761;42.680;23.312;2023-03-21T12:56:06;94398.56;;;16.31;37.44
62697;BME280;48761;42.680;23.312;2023-03-21T12:58:48;94390.88;;;16.36;37.64
62697;BME280;48761;42.680;23.312;2023-03-21T13:01:18;94367.09;;;16.33;37.57
62697;BME280;48761;42.680;23.312;2023-03-21T13:03:58;94385.75;;;16.43;37.77
62697;BME280;48761;42.680;23.312;2023-03-21T13:06:29;94370.91;;;16.30;37.12
62697;BME280;48761;42.680;23.312;2023-03-21T13:09:04;94375.56;;;16.28;37.08
62697;BME280;48761;42.680;23.312;2023-03-21T13:11:32;94379.16;;;16.37;37.49
62697;BME280;48761;42.680;23.312;2023-03-21T13:14:07;94351.00;;;16.33;37.89
62697;BME280;48761;42.680;23.312;2023-03-21T13:16:56;94331.44;;;16.04;37.78
62697;BME280;48761;42.680;23.312;2023-03-21T13:19:39;94369.06;;;16.31;38.42
62697;BME280;48761;42.680;23.312;2023-03-21T13:24:47;94369.69;;;16.24;38.13
62697;BME280;48761;42.680;23.312;2023-03-21T13:27:34;94368.00;;;16.23;38.24
62697;BME280;48761;42.680;23.312;2023-03-21T13:32:30;94363.78;;;16.21;38.54
62697;BME280;48761;42.680;23.312;2023-03-21T13:34:59;94335.88;;;16.05;38.69
62697;BME280;48761;42.680;23.312;2023-03-21T13:37:31;94342.66;;;16.18;38.72
62697;BME280;48761;42.680;23.312;2023-03-21T13:40:05;94350.91;;;16.24;39.15
62697;BME280;48761;42.680;23.312;2023-03-21T13:42:32;94355.28;;;16.25;38.63
62697;BME280;48761;42.680;23.312;2023-03-21T13:45:00;94335.91;;;16.13;39.17
62697;BME280;48761;42.680;23.312;2023-03-21T13:50:33;94334.34;;;16.29;39.40
62697;BME280;48761;42.680;23.312;2023-03-21T13:53:08;94354.25;;;16.45;39.54
62697;BME280;48761;42.680;23.312;2023-03-21T13:55:40;94306.59;;;16.12;39.74
62697;BME280;48761;42.680;23.312;2023-03-21T14:01:25;94343.19;;;16.21;40.02
62697;BME280;48761;42.680;23.312;2023-03-21T14:04:05;94319.88;;;16.03;40.50
62697;BME280;48761;42.680;23.312;2023-03-21T14:06:41;94337.44;;;16.16;40.41
62697;BME280;48761;42.680;23.312;2023-03-21T14:09:08;94346.25;;;16.27;40.25
62697;BME280;48761;42.680;23.312;2023-03-21T14:11:36;94339.50;;;16.22;40.31
62697;BME280;48761;42.680;23.312;2023-03-21T14:14:03;94319.31;;;16.10;40.76
62697;BME280;48761;42.680;23.312;2023-03-21T14:16:31;94332.44;;;16.21;41.33
62697;BME280;48761;42.680;23.312;2023-03-21T14:19:03;94326.56;;;16.18;41.42
62697;BME280;48761;42.680;23.312;2023-03-21T14:21:34;94331.41;;;16.14;41.94
62697;BME280;48761;42.680;23.312;2023-03-21T14:24:02;94332.03;;;16.08;41.91
62697;BME280;48761;42.680;23.312;2023-03-21T14:26:31;94281.84;;;15.63;41.94
62697;BME280;48761;42.680;23.312;2023-03-21T14:28:58;94330.84;;;15.92;42.16
62697;BME280;48761;42.680;23.312;2023-03-21T14:31:26;94336.50;;;15.89;42.30
62697;BME280;48761;42.680;23.312;2023-03-21T14:33:55;94325.41;;;15.84;42.51
62697;BME280;48761;42.680;23.312;2023-03-21T14:36:25;94333.19;;;15.95;42.62
62697;BME280;48761;42.680;23.312;2023-03-21T14:39:16;94323.72;;;15.83;42.47
62697;BME280;48761;42.680;23.312;2023-03-21T14:41:46;94309.97;;;15.77;42.14